Time;durP1;ratioP1;P1;durP2;ratioP2;P2;SDS_P1;SDS_P2;PMS_P1;PMS_P2;Temp;Humidity;BMP_temperature;BMP_pressure;BME280_temperature;BME280_humidity;BME280_pressure;Samples;Min_cycle;Max_cycle;Signal;HPM_P1;HPM_P2
2022/12/08 07:02:26;;;;;;;4.35;3.67;;;;;;;;;;10538050;28;20099;-86
2022/12/08 08:14:56;;;;;;;3.97;3.17;;;;;;;;;;10469677;28;20025;-87
2022/12/08 08:19:57;;;;;;;5.45;4.40;;;;;;;;;;10412470;28;20407;-83
2022/12/08 08:25:02;;;;;;;;;;;;;;;;;;10429731;28;20021;-85
2022/12/08 08:30:06;;;;;;;18.05;14.70;;;;;;;;;;10451081;28;19925;-83
2022/12/08 08:35:07;;;;;;;16.38;13.05;;;;;;;;;;10425307;28;20029;-86
2022/12/08 08:40:09;;;;;;;24.73;17.75;;;;;;;;;;10414560;28;20037;-85
2022/12/08 08:45:09;;;;;;;;;;;;;;;;;;10425145;28;20049;-86
2022/12/08 08:50:11;;;;;;;12.50;10.25;;;;;;;;;;10420998;28;20281;-84
2022/12/08 08:55:12;;;;;;;13.02;9.85;;;;;;;;;;10420230;28;20037;-85
2022/12/08 09:00:16;;;;;;;;;;;;;;;;;;10418718;28;20041;-85
2022/12/08 09:05:30;;;;;;;9.65;8.07;;;;;;;;;;10418672;28;19909;-84
2022/12/08 09:10:31;;;;;;;11.77;9.63;;;;;;;;;;10420944;28;20033;-84
2022/12/08 09:15:32;;;;;;;8.45;7.15;;;;;;;;;;10413922;28;20065;-85
2022/12/08 09:20:37;;;;;;;7.65;5.45;;;;;;;;;;10423649;28;20049;-84
2022/12/08 09:25:38;;;;;;;7.05;5.65;;;;;;;;;;10415780;28;20061;-83
2022/12/08 09:30:54;;;;;;;7.32;5.25;;;;;;;;;;10439000;28;20045;-83
2022/12/08 09:35:55;;;;;;;6.18;4.82;;;;;;;;;;10426965;28;20434;-83
2022/12/08 09:40:57;;;;;;;7.25;4.75;;;;;;;;;;10421739;28;20041;-84
2022/12/08 09:51:38;;;;;;;4.18;3.78;;;;;;;;;;10438734;28;20029;-82
2022/12/08 09:56:39;;;;;;;5.22;3.85;;;;;;;;;;10416064;28;20065;-81
2022/12/08 10:01:40;;;;;;;;;;;;;;;;;;10419942;28;20043;-82
2022/12/08 10:07:03;;;;;;;4.45;3.35;;;;;;;;;;10419267;28;19909;-82
2022/12/08 10:12:14;;;;;;;7.03;5.20;;;;;;;;;;10431907;28;20038;-82
2022/12/08 10:17:21;;;;;;;7.05;4.30;;;;;;;;;;10419675;28;20052;-82
2022/12/08 10:28:03;;;;;;;6.30;5.07;;;;;;;;;;10436529;28;20049;-82
2022/12/08 10:33:05;;;;;;;8.00;7.22;;;;;;;;;;10420115;28;20120;-83
2022/12/08 10:38:15;;;;;;;7.22;4.85;;;;;;;;;;10420128;28;20065;-83
2022/12/08 10:43:47;;;;;;;7.43;6.18;;;;;;;;;;10439301;28;20088;-83
2022/12/08 10:48:49;;;;;;;4.75;4.20;;;;;;;;;;10416588;28;20030;-82
2022/12/08 10:54:02;;;;;;;4.47;3.85;;;;;;;;;;10409105;28;20137;-83
2022/12/08 10:59:05;;;;;;;4.72;3.58;;;;;;;;;;10408868;28;20037;-80
2022/12/08 11:04:17;;;;;;;3.47;2.72;;;;;;;;;;10425971;28;20034;-83
2022/12/08 11:09:18;;;;;;;3.75;3.10;;;;;;;;;;10408332;28;20034;-81
2022/12/08 11:14:19;;;;;;;4.35;3.75;;;;;;;;;;10409755;28;20061;-83
2022/12/08 11:19:20;;;;;;;;;;;;;;;;;;10419401;28;20038;-83
2022/12/08 11:25:05;;;;;;;4.22;3.33;;;;;;;;;;10426969;28;19916;-83
2022/12/08 11:30:25;;;;;;;3.05;2.72;;;;;;;;;;10406878;28;20484;-83
2022/12/08 11:35:37;;;;;;;3.92;3.53;;;;;;;;;;10410826;28;20068;-84
2022/12/08 11:41:37;;;;;;;4.75;3.90;;;;;;;;;;10417810;28;20041;-84
2022/12/08 11:47:32;;;;;;;4.38;2.67;;;;;;;;;;10417239;28;20088;-83
2022/12/08 11:52:36;;;;;;;3.53;2.88;;;;;;;;;;10419812;28;20033;-83
2022/12/08 11:57:40;;;;;;;3.20;2.42;;;;;;;;;;10420633;28;20068;-84
2022/12/08 12:03:06;;;;;;;2.30;1.77;;;;;;;;;;10419696;28;20407;-82
2022/12/08 12:08:25;;;;;;;3.15;2.60;;;;;;;;;;10449316;28;20067;-83
2022/12/08 12:13:45;;;;;;;3.28;2.67;;;;;;;;;;10424866;28;20029;-84
2022/12/08 12:19:03;;;;;;;8.82;6.05;;;;;;;;;;10443490;28;20034;-86
2022/12/08 12:24:30;;;;;;;3.38;2.83;;;;;;;;;;10442646;28;20071;-83
2022/12/08 12:29:36;;;;;;;4.15;3.08;;;;;;;;;;10426921;28;20048;-83
2022/12/08 12:34:37;;;;;;;3.53;3.00;;;;;;;;;;10427831;28;20078;-82
2022/12/08 12:40:04;;;;;;;3.05;2.60;;;;;;;;;;10443388;28;20041;-82
2022/12/08 12:45:21;;;;;;;3.33;3.00;;;;;;;;;;10420384;28;20073;-82
2022/12/08 12:50:35;;;;;;;4.57;3.80;;;;;;;;;;10416370;28;20433;-82
2022/12/08 12:55:45;;;;;;;3.50;3.10;;;;;;;;;;10418812;28;20029;-82
2022/12/08 13:00:46;;;;;;;5.40;4.07;;;;;;;;;;10422942;28;20068;-84
2022/12/08 13:05:47;;;;;;;;;;;;;;;;;;10421200;28;20041;-84
2022/12/08 13:11:00;;;;;;;5.10;4.05;;;;;;;;;;10416475;28;19904;-82
2022/12/08 13:16:07;;;;;;;4.30;3.80;;;;;;;;;;10414888;28;20515;-83
2022/12/08 13:21:08;;;;;;;4.05;2.80;;;;;;;;;;10431647;28;20049;-84
2022/12/08 13:26:09;;;;;;;;;;;;;;;;;;10432573;28;20036;-85
2022/12/08 13:31:30;;;;;;;6.38;4.97;;;;;;;;;;10416212;28;19913;-83
2022/12/08 13:36:33;;;;;;;6.05;4.72;;;;;;;;;;10418742;28;20037;-82
2022/12/08 13:41:36;;;;;;;7.55;4.97;;;;;;;;;;10429783;28;20052;-82
2022/12/08 13:46:39;;;;;;;4.60;4.03;;;;;;;;;;10448837;28;20049;-82
2022/12/08 13:51:45;;;;;;;6.15;5.10;;;;;;;;;;10453773;23;20048;-83
2022/12/08 13:56:47;;;;;;;3.85;3.15;;;;;;;;;;10475847;28;20478;-83
2022/12/08 14:01:49;;;;;;;3.80;3.38;;;;;;;;;;10480110;28;20058;-82
2022/12/08 14:06:52;;;;;;;4.93;3.85;;;;;;;;;;10492746;28;20041;-83
2022/12/08 14:11:56;;;;;;;4.75;3.85;;;;;;;;;;10511344;28;20524;-82
2022/12/08 14:17:00;;;;;;;6.53;5.82;;;;;;;;;;10515687;28;20033;-83
2022/12/08 14:22:17;;;;;;;3.40;3.00;;;;;;;;;;10510044;28;20035;-83
2022/12/08 14:27:20;;;;;;;3.88;3.47;;;;;;;;;;10491904;28;20040;-83
2022/12/08 14:32:33;;;;;;;4.78;3.47;;;;;;;;;;10518820;28;20040;-82
2022/12/08 14:37:35;;;;;;;3.25;2.40;;;;;;;;;;10499201;28;20033;-82
2022/12/08 14:42:44;;;;;;;3.83;2.78;;;;;;;;;;10535383;28;20047;-80
2022/12/08 14:47:45;;;;;;;4.03;2.80;;;;;;;;;;10518102;28;20502;-80
2022/12/08 14:52:46;;;;;;;4.97;2.88;;;;;;;;;;10533518;28;20070;-81
2022/12/08 14:57:47;;;;;;;;;;;;;;;;;;10537910;28;20122;-82
2022/12/08 15:02:48;;;;;;;4.10;3.28;;;;;;;;;;10560958;28;20405;-81
2022/12/08 15:07:54;;;;;;;3.60;3.10;;;;;;;;;;10552159;28;20025;-82
2022/12/08 15:13:07;;;;;;;5.35;3.50;;;;;;;;;;10533877;28;20122;-80
2022/12/08 15:18:14;;;;;;;5.30;3.45;;;;;;;;;;10577303;28;20040;-81
2022/12/08 15:23:26;;;;;;;7.82;5.10;;;;;;;;;;10578690;28;20040;-79
2022/12/08 15:28:28;;;;;;;5.22;3.75;;;;;;;;;;10594845;28;20024;-79
2022/12/08 15:33:30;;;;;;;6.82;5.07;;;;;;;;;;10555035;28;20058;-82
2022/12/08 15:38:31;;;;;;;;;;;;;;;;;;10557506;28;20074;-83
2022/12/08 15:43:32;;;;;;;4.20;3.75;;;;;;;;;;10572166;28;19971;-81
2022/12/08 15:48:33;;;;;;;;;;;;;;;;;;10565077;28;20032;-81
2022/12/08 15:53:34;;;;;;;4.97;4.03;;;;;;;;;;10549829;28;19904;-82
2022/12/08 15:58:35;;;;;;;;;;;;;;;;;;10544808;28;20481;-83
2022/12/08 16:03:36;;;;;;;5.32;4.40;;;;;;;;;;10561742;28;19920;-82
2022/12/08 16:08:37;;;;;;;;;;;;;;;;;;10548231;28;20106;-84
2022/12/08 16:13:50;;;;;;;5.28;4.57;;;;;;;;;;10567404;28;19990;-83
2022/12/08 16:18:51;;;;;;;5.97;5.38;;;;;;;;;;10552044;28;20056;-82
2022/12/08 16:23:52;;;;;;;;;;;;;;;;;;10561777;28;20039;-82
2022/12/08 16:28:53;;;;;;;5.53;4.72;;;;;;;;;;10541397;28;19910;-82
2022/12/08 16:33:54;;;;;;;6.43;4.97;;;;;;;;;;10544652;28;20040;-83
2022/12/08 16:38:55;;;;;;;;;;;;;;;;;;10563484;28;20060;-83
2022/12/08 16:44:00;;;;;;;6.72;6.00;;;;;;;;;;10545702;28;19914;-83
2022/12/08 16:49:01;;;;;;;5.22;4.32;;;;;;;;;;10551308;28;20036;-81
2022/12/08 16:54:02;;;;;;;;;;;;;;;;;;10545334;28;20079;-79
2022/12/08 16:59:03;;;;;;;5.20;4.65;;;;;;;;;;10561496;28;20014;-81
2022/12/08 17:04:04;;;;;;;7.68;6.40;;;;;;;;;;10556372;28;20397;-81
2022/12/08 17:09:05;;;;;;;;;;;;;;;;;;10535857;28;20438;-80
2022/12/08 17:14:08;;;;;;;7.30;6.20;;;;;;;;;;10530720;28;19904;-80
2022/12/08 17:19:09;;;;;;;4.40;3.92;;;;;;;;;;10540731;28;20056;-81
2022/12/08 17:24:10;;;;;;;6.90;5.10;;;;;;;;;;10564756;28;20039;-80
2022/12/08 17:29:11;;;;;;;8.57;7.10;;;;;;;;;;10546190;28;20040;-83
2022/12/08 17:34:12;;;;;;;;;;;;;;;;;;10552321;28;20090;-82
2022/12/08 17:39:13;;;;;;;8.57;7.50;;;;;;;;;;10547685;28;20049;-82
2022/12/08 17:44:18;;;;;;;8.18;7.38;;;;;;;;;;10548027;28;20096;-81
2022/12/08 17:49:22;;;;;;;7.68;6.85;;;;;;;;;;10554083;28;20028;-81
2022/12/08 17:54:24;;;;;;;7.60;6.80;;;;;;;;;;10555092;28;20036;-82
2022/12/08 17:59:26;;;;;;;9.30;7.55;;;;;;;;;;10532858;28;20085;-83
2022/12/08 18:04:27;;;;;;;6.93;6.03;;;;;;;;;;10564982;28;20036;-82
2022/12/08 18:09:30;;;;;;;6.13;5.53;;;;;;;;;;10558846;28;20036;-83
2022/12/08 18:14:31;;;;;;;6.38;5.68;;;;;;;;;;10530913;28;20103;-83
2022/12/08 18:19:32;;;;;;;;;;;;;;;;;;10550759;28;20113;-83
2022/12/08 18:24:33;;;;;;;6.15;5.53;;;;;;;;;;10532263;28;20375;-82
2022/12/08 18:29:34;;;;;;;;;;;;;;;;;;10534236;28;20040;-82
2022/12/08 18:34:35;;;;;;;10.73;8.93;;;;;;;;;;10535170;28;19914;-83
2022/12/08 18:39:36;;;;;;;;;;;;;;;;;;10535361;28;20028;-83
2022/12/08 18:44:37;;;;;;;9.88;8.85;;;;;;;;;;10537771;28;19939;-83
2022/12/08 18:49:38;;;;;;;7.07;6.03;;;;;;;;;;10539720;28;20028;-83
2022/12/08 18:54:40;;;;;;;;;;;;;;;;;;10537435;28;20092;-83
2022/12/08 18:59:40;;;;;;;6.35;5.75;;;;;;;;;;10540786;28;19908;-83
2022/12/08 19:04:42;;;;;;;;;;;;;;;;;;10539724;28;20132;-83
2022/12/08 19:09:43;;;;;;;7.82;7.03;;;;;;;;;;10540286;28;19954;-83
2022/12/08 19:14:44;;;;;;;;;;;;;;;;;;10540929;28;20051;-83
2022/12/08 19:19:45;;;;;;;12.65;11.38;;;;;;;;;;10543241;28;20258;-83
2022/12/08 19:24:46;;;;;;;;;;;;;;;;;;10564914;28;20046;-82
2022/12/08 19:29:47;;;;;;;7.97;6.68;;;;;;;;;;10549702;28;19904;-83
2022/12/08 19:34:48;;;;;;;;;;;;;;;;;;10538162;28;20035;-83
2022/12/08 19:45:20;;;;;;;6.20;5.60;;;;;;;;;;10551709;28;20036;-83
2022/12/08 19:50:36;;;;;;;5.53;4.93;;;;;;;;;;10535250;28;20032;-83
2022/12/08 19:55:37;;;;;;;6.72;6.03;;;;;;;;;;10541773;28;20459;-85
2022/12/08 20:00:39;;;;;;;6.43;5.82;;;;;;;;;;10543766;28;20067;-84
2022/12/08 20:05:41;;;;;;;5.30;4.53;;;;;;;;;;10541954;28;20130;-83
2022/12/08 20:10:43;;;;;;;5.40;4.90;;;;;;;;;;10561201;28;20032;-84
2022/12/08 20:15:45;;;;;;;5.60;5.10;;;;;;;;;;10547048;28;20108;-85
2022/12/08 20:20:46;;;;;;;7.05;6.32;;;;;;;;;;10546257;28;20131;-84
